Time;durP1;ratioP1;P1;durP2;ratioP2;P2;SDS_P1;SDS_P2;PMS_P1;PMS_P2;Temp;Humidity;BMP_temperature;BMP_pressure;BME280_temperature;BME280_humidity;BME280_pressure;Samples;Min_cycle;Max_cycle;Signal;HPM_P1;HPM_P2
2022/07/10 00:01:08;;;;;;;7.20;3.92;;;;;;;19.82;45.76;102694.41;5096436;28;20099;-63
2022/07/10 00:03:36;;;;;;;7.07;2.45;;;;;;;19.78;45.72;102685.88;5097150;28;20055;-63
2022/07/10 00:06:04;;;;;;;8.82;3.05;;;;;;;19.72;45.99;102680.53;5103314;28;20428;-63
2022/07/10 00:08:32;;;;;;;5.97;2.90;;;;;;;19.74;45.85;102690.13;5103930;28;20048;-63
2022/07/10 00:10:59;;;;;;;5.68;2.30;;;;;;;19.69;45.93;102681.00;5095914;28;20040;-63
2022/07/10 00:13:27;;;;;;;5.65;2.13;;;;;;;19.70;46.05;102685.41;5111292;28;20470;-63
2022/07/10 00:15:55;;;;;;;4.85;2.15;;;;;;;19.70;45.91;102686.22;5105614;28;20044;-63
2022/07/10 00:18:24;;;;;;;10.65;2.70;;;;;;;19.67;46.04;102703.06;5115245;28;20051;-63
2022/07/10 00:20:52;;;;;;;6.50;2.78;;;;;;;19.66;45.95;102695.94;5093584;28;20147;-63
2022/07/10 00:23:20;;;;;;;6.50;2.28;;;;;;;19.64;45.95;102687.19;5105768;28;20056;-63
2022/07/10 00:25:48;;;;;;;4.07;2.00;;;;;;;19.64;45.96;102689.91;5102358;28;20056;-63
2022/07/10 00:28:15;;;;;;;3.75;1.60;;;;;;;19.63;46.07;102692.88;5092761;28;20367;-63
2022/07/10 00:30:43;;;;;;;4.75;1.90;;;;;;;19.61;45.97;102684.09;5095286;28;20079;-63
2022/07/10 00:33:11;;;;;;;2.72;1.55;;;;;;;19.60;46.01;102687.88;5104057;28;20059;-63
2022/07/10 00:35:40;;;;;;;4.95;2.25;;;;;;;19.58;46.20;102677.22;5099754;28;20130;-63
2022/07/10 00:38:08;;;;;;;4.07;1.75;;;;;;;19.56;46.06;102676.63;5103501;28;20052;-63
2022/07/10 00:40:36;;;;;;;4.05;1.80;;;;;;;19.51;46.01;102679.19;5099798;28;20086;-63
2022/07/10 00:43:04;;;;;;;3.67;1.58;;;;;;;19.53;46.30;102679.81;5096388;28;20550;-63
2022/07/10 00:45:32;;;;;;;6.13;1.83;;;;;;;19.53;46.33;102679.00;5101850;28;20044;-63
2022/07/10 00:48:00;;;;;;;3.55;1.60;;;;;;;19.50;46.40;102672.91;5103177;28;20067;-63
2022/07/10 00:50:29;;;;;;;4.20;2.13;;;;;;;19.47;46.47;102667.09;5090935;28;20078;-63
2022/07/10 00:52:58;;;;;;;5.00;1.60;;;;;;;19.48;46.53;102674.22;5096826;28;20051;-63
2022/07/10 00:55:26;;;;;;;4.78;2.22;;;;;;;19.47;46.46;102676.13;5106815;28;20051;-63
2022/07/10 00:57:53;;;;;;;5.70;1.77;;;;;;;19.43;46.54;102669.47;5096707;28;20067;-63
2022/07/10 01:00:21;;;;;;;4.47;1.60;;;;;;;19.46;46.51;102677.19;5094749;28;20119;-63
2022/07/10 01:02:49;;;;;;;4.50;1.60;;;;;;;19.45;46.45;102659.16;5090268;28;20079;-63
2022/07/10 01:05:17;;;;;;;5.65;1.50;;;;;;;19.46;46.50;102663.53;5098048;28;20043;-63
2022/07/10 01:07:45;;;;;;;5.45;1.60;;;;;;;19.45;46.33;102664.63;5097687;28;20048;-63
2022/07/10 01:10:14;;;;;;;3.92;1.73;;;;;;;19.44;46.39;102659.41;5095575;28;20055;-63
2022/07/10 01:12:43;;;;;;;2.95;1.52;;;;;;;19.44;46.59;102659.41;5095771;28;20051;-63
2022/07/10 01:15:11;;;;;;;7.18;2.08;;;;;;;19.43;46.70;102655.00;5102074;28;20363;-63
2022/07/10 01:17:39;;;;;;;4.82;2.08;;;;;;;19.42;46.54;102651.44;5089670;28;20113;-63
2022/07/10 01:20:08;;;;;;;4.05;1.52;;;;;;;19.40;46.84;102655.47;5094365;28;20047;-64
2022/07/10 01:22:38;;;;;;;4.35;1.92;;;;;;;19.39;46.55;102645.63;5099945;28;20109;-62
2022/07/10 01:25:07;;;;;;;2.05;1.48;;;;;;;19.38;46.76;102643.97;5095826;28;20056;-63
2022/07/10 01:27:35;;;;;;;5.50;1.40;;;;;;;19.36;46.74;102633.31;5092933;28;20056;-63
2022/07/10 01:30:02;;;;;;;4.40;1.50;;;;;;;19.31;46.80;102625.00;5097311;28;20055;-63
2022/07/10 01:32:37;;;;;;;3.58;1.60;;;;;;;19.31;46.74;102626.91;5102210;28;20378;-63
2022/07/10 01:35:06;;;;;;;4.95;2.22;;;;;;;19.24;46.75;102621.56;5098409;28;20086;-63
2022/07/10 01:37:34;;;;;;;6.55;1.95;;;;;;;19.30;46.98;102634.25;5098618;28;20086;-64
2022/07/10 01:40:04;;;;;;;6.32;1.63;;;;;;;19.29;46.88;102629.88;5093601;28;20370;-64
2022/07/10 01:42:32;;;;;;;5.45;1.98;;;;;;;19.29;46.96;102624.41;5096396;28;20079;-63
2022/07/10 01:45:00;;;;;;;4.63;1.52;;;;;;;19.27;47.08;102625.72;5097275;28;20052;-64
2022/07/10 01:47:33;;;;;;;4.43;2.00;;;;;;;19.26;47.11;102626.78;5093432;28;20047;-64
2022/07/10 01:50:01;;;;;;;3.50;1.63;;;;;;;19.25;47.07;102625.97;5094595;28;20048;-64
2022/07/10 01:52:28;;;;;;;5.07;1.80;;;;;;;19.24;47.25;102628.91;5095073;28;20044;-64
2022/07/10 01:54:56;;;;;;;5.70;2.03;;;;;;;19.23;47.16;102624.53;5092725;28;20040;-64
2022/07/10 01:57:25;;;;;;;5.45;1.73;;;;;;;19.20;47.21;102625.84;5092422;28;20092;-64
2022/07/10 01:59:53;;;;;;;7.63;2.03;;;;;;;19.18;47.36;102628.78;5096444;28;20050;-64
2022/07/10 02:02:21;;;;;;;4.00;1.50;;;;;;;19.17;47.37;102629.03;5096259;28;20063;-64
2022/07/10 02:04:48;;;;;;;4.20;1.63;;;;;;;19.15;47.18;102626.53;5086904;28;20068;-64
2022/07/10 02:07:18;;;;;;;3.72;2.17;;;;;;;19.15;47.45;102633.91;5100105;28;20052;-63
2022/07/10 02:09:46;;;;;;;6.85;2.47;;;;;;;19.12;47.54;102632.47;5100260;28;20374;-64
2022/07/10 02:12:15;;;;;;;4.53;1.60;;;;;;;19.11;47.30;102630.81;5087979;28;20063;-64
2022/07/10 02:14:44;;;;;;;6.63;1.75;;;;;;;18.98;47.39;102611.97;5091028;28;20045;-64
2022/07/10 02:17:12;;;;;;;4.53;2.17;;;;;;;19.10;47.59;102631.03;5097602;28;20060;-64
2022/07/10 02:19:40;;;;;;;5.72;1.92;;;;;;;19.08;47.38;102634.00;5105185;28;20371;-63
2022/07/10 02:22:08;;;;;;;4.22;1.60;;;;;;;19.07;47.43;102632.34;5089917;28;20047;-64
2022/07/10 02:24:35;;;;;;;7.28;2.35;;;;;;;19.07;47.43;102628.78;5103660;28;20079;-64
2022/07/10 02:27:04;;;;;;;4.78;1.77;;;;;;;19.05;47.56;102628.22;5099172;28;20052;-64
2022/07/10 02:29:32;;;;;;;3.70;1.58;;;;;;;19.02;47.51;102626.81;5102232;28;20052;-64
2022/07/10 02:32:01;;;;;;;3.25;1.52;;;;;;;18.99;47.74;102621.00;5093042;28;20090;-64
2022/07/10 02:34:29;;;;;;;3.90;1.40;;;;;;;18.99;47.83;102629.16;5090905;28;20049;-63
2022/07/10 02:36:57;;;;;;;5.43;1.60;;;;;;;18.98;47.85;102624.78;5095344;28;20102;-63
2022/07/10 02:39:24;;;;;;;5.10;1.73;;;;;;;18.98;47.65;102631.06;5096522;28;20052;-63
2022/07/10 02:41:52;;;;;;;7.95;1.67;;;;;;;18.96;47.87;102626.91;5087511;28;20115;-63
2022/07/10 02:44:20;;;;;;;5.63;2.00;;;;;;;18.94;47.72;102623.59;5088985;28;20071;-63
2022/07/10 02:46:48;;;;;;;5.90;1.65;;;;;;;18.93;47.96;102624.66;5094096;28;20048;-63
2022/07/10 02:49:17;;;;;;;4.05;1.60;;;;;;;18.91;47.78;102622.16;5096629;28;20162;-63
2022/07/10 02:51:45;;;;;;;5.43;1.60;;;;;;;18.91;47.85;102621.31;5094514;28;20048;-64
2022/07/10 02:54:12;;;;;;;4.78;1.60;;;;;;;18.90;47.92;102622.41;5090965;28;20060;-63
2022/07/10 02:56:40;;;;;;;4.72;1.70;;;;;;;18.89;47.89;102620.72;5104683;28;20047;-63
2022/07/10 02:59:08;;;;;;;5.43;1.70;;;;;;;18.88;47.89;102614.44;5099743;28;20071;-63
2022/07/10 03:01:36;;;;;;;4.88;2.15;;;;;;;18.86;48.15;102616.59;5092608;28;20496;-63
2022/07/10 03:04:04;;;;;;;4.13;1.92;;;;;;;18.87;48.05;102620.97;5094260;28;20068;-63
2022/07/10 03:06:33;;;;;;;7.47;1.88;;;;;;;18.85;48.02;102618.47;5099869;28;20077;-63
2022/07/10 03:09:00;;;;;;;4.10;1.70;;;;;;;18.84;48.10;102626.88;5094015;28;20045;-63
2022/07/10 03:11:28;;;;;;;5.53;2.08;;;;;;;18.81;48.17;102625.47;5091947;28;20052;-64
2022/07/10 03:13:56;;;;;;;4.00;1.67;;;;;;;18.83;48.10;102625.22;5094724;28;20044;-63
2022/07/10 03:16:24;;;;;;;3.33;1.67;;;;;;;18.82;48.19;102620.84;5093458;28;20043;-63
2022/07/10 03:18:52;;;;;;;3.42;1.67;;;;;;;18.80;48.19;102620.25;5092816;28;20478;-63
2022/07/10 03:21:19;;;;;;;5.10;2.05;;;;;;;18.79;48.17;102616.69;5097774;28;20090;-63
2022/07/10 03:23:48;;;;;;;4.60;2.10;;;;;;;18.77;48.43;102612.53;5091177;28;20060;-64
2022/07/10 03:26:16;;;;;;;3.15;2.05;;;;;;;18.72;48.36;102609.69;5085677;28;20044;-64
2022/07/10 03:28:44;;;;;;;6.45;2.60;;;;;;;18.75;48.26;102618.22;5099080;28;20055;-63
2022/07/10 03:31:12;;;;;;;6.18;2.65;;;;;;;18.73;48.33;102611.34;5094583;28;20056;-63
2022/07/10 03:33:40;;;;;;;5.93;2.38;;;;;;;18.71;48.47;102608.84;5087228;28;20045;-64
2022/07/10 03:36:08;;;;;;;4.60;1.83;;;;;;;18.71;48.64;102613.47;5100259;28;20048;-64
2022/07/10 03:38:35;;;;;;;6.60;1.60;;;;;;;18.69;48.45;102608.25;5095564;28;20090;-64
2022/07/10 03:41:05;;;;;;;7.22;2.05;;;;;;;18.67;48.55;102607.66;5091483;28;20056;-63
2022/07/10 03:43:33;;;;;;;4.75;1.80;;;;;;;18.65;48.69;102598.88;5095591;28;20469;-64
2022/07/10 03:46:01;;;;;;;5.82;1.65;;;;;;;18.64;48.57;102599.94;5104427;28;20051;-64
2022/07/10 03:48:29;;;;;;;6.93;2.40;;;;;;;18.64;48.90;102602.69;5096848;28;20052;-63
2022/07/10 03:50:56;;;;;;;3.45;1.73;;;;;;;18.63;48.76;102602.91;5090513;28;20045;-63
2022/07/10 03:53:24;;;;;;;5.55;1.95;;;;;;;18.62;48.88;102607.53;5100174;28;20123;-63
2022/07/10 03:55:52;;;;;;;3.85;2.03;;;;;;;18.61;48.78;102592.25;5095532;28;20052;-63
2022/07/10 03:58:20;;;;;;;5.80;1.80;;;;;;;18.60;48.97;102595.16;5102096;28;20048;-63
2022/07/10 04:00:48;;;;;;;4.82;2.22;;;;;;;18.60;48.90;102589.72;5089683;28;20063;-63
2022/07/10 04:03:16;;;;;;;7.38;2.00;;;;;;;18.58;49.00;102595.41;5102420;28;20492;-63
2022/07/10 04:05:43;;;;;;;4.90;1.90;;;;;;;18.57;48.92;102599.19;5089674;28;20105;-63
2022/07/10 04:08:11;;;;;;;6.03;2.50;;;;;;;18.45;49.00;102579.25;5091244;28;20044;-63
2022/07/10 04:10:39;;;;;;;3.70;2.05;;;;;;;18.56;48.95;102593.97;5099478;28;20048;-63
2022/07/10 04:13:07;;;;;;;6.00;2.30;;;;;;;18.54;49.06;102597.75;5102850;28;20055;-63
2022/07/10 04:15:36;;;;;;;8.73;2.00;;;;;;;18.54;48.99;102599.66;5093100;28;20047;-63
2022/07/10 04:18:04;;;;;;;5.20;1.88;;;;;;;18.52;48.91;102590.88;5104888;28;20055;-63
2022/07/10 04:20:32;;;;;;;7.95;2.00;;;;;;;18.51;48.97;102603.66;5098661;28;20108;-63
2022/07/10 04:22:59;;;;;;;5.78;1.90;;;;;;;18.53;48.94;102606.16;5117101;28;20101;-62
2022/07/10 04:25:27;;;;;;;6.88;1.92;;;;;;;18.51;49.01;102606.38;5096352;28;20044;-62
2022/07/10 04:27:55;;;;;;;6.28;1.70;;;;;;;18.51;49.14;102598.22;5097595;28;20055;-63
2022/07/10 04:30:23;;;;;;;5.15;1.95;;;;;;;18.52;49.26;102607.22;5103030;28;20044;-62
2022/07/10 04:32:52;;;;;;;2.97;1.80;;;;;;;18.50;49.38;102603.91;5097039;28;20079;-63
2022/07/10 04:35:20;;;;;;;10.35;3.03;;;;;;;18.48;49.43;102606.84;5095914;28;20044;-65
2022/07/10 04:37:48;;;;;;;6.25;2.10;;;;;;;18.45;49.24;102585.53;5102749;28;20055;-64
2022/07/10 04:40:16;;;;;;;6.28;2.00;;;;;;;18.47;49.35;102582.59;5089787;28;20064;-63
2022/07/10 04:42:43;;;;;;;6.47;2.08;;;;;;;18.45;49.22;102593.72;5089434;28;20068;-63
2022/07/10 04:45:11;;;;;;;5.15;1.92;;;;;;;18.43;49.32;102589.56;5102223;28;20345;-63
2022/07/10 04:47:39;;;;;;;4.03;1.85;;;;;;;18.46;49.33;102603.53;5090355;28;20071;-63
2022/07/10 04:50:09;;;;;;;3.75;2.05;;;;;;;18.46;49.36;102597.25;5102294;28;20082;-63
2022/07/10 04:52:37;;;;;;;6.07;2.20;;;;;;;18.45;49.35;102596.44;5094534;28;20136;-63
2022/07/10 04:55:06;;;;;;;6.80;2.00;;;;;;;18.43;49.68;102598.56;5101248;28;20044;-63
2022/07/10 04:57:34;;;;;;;2.75;1.70;;;;;;;18.43;49.49;102595.00;5106544;28;20523;-63
2022/07/10 05:00:01;;;;;;;6.10;1.77;;;;;;;18.41;49.72;102589.78;5109365;28;20059;-64
2022/07/10 05:02:29;;;;;;;3.45;2.33;;;;;;;18.42;49.59;102594.16;5096378;28;20159;-63
2022/07/10 05:04:57;;;;;;;6.47;2.17;;;;;;;18.42;49.62;102609.66;4747512;28;9999819;-63
2022/07/10 05:07:26;;;;;;;6.78;2.05;;;;;;;18.40;49.79;102614.53;5099506;28;20067;-63
2022/07/10 05:09:54;;;;;;;4.90;2.20;;;;;;;18.38;49.65;102616.63;5098536;28;20044;-63
2022/07/10 05:12:21;;;;;;;5.25;1.90;;;;;;;18.33;50.05;102613.78;5098323;28;20062;-63
2022/07/10 05:14:49;;;;;;;5.13;2.22;;;;;;;18.36;50.07;102614.16;5107382;28;20086;-62
2022/07/10 05:17:17;;;;;;;4.13;2.08;;;;;;;18.36;49.89;102610.59;5099798;28;20083;-63
2022/07/10 05:19:45;;;;;;;4.82;2.38;;;;;;;18.21;50.36;102570.19;5104452;28;20083;-63
2022/07/10 05:22:12;;;;;;;5.40;1.83;;;;;;;18.32;50.22;102595.78;5094262;28;20072;-62
2022/07/10 05:24:43;;;;;;;4.47;1.83;;;;;;;18.34;50.08;102604.56;5097680;28;20508;-62
2022/07/10 05:27:10;;;;;;;4.97;1.95;;;;;;;18.33;50.32;102605.63;5096655;28;20056;-64
2022/07/10 05:29:38;;;;;;;6.07;2.53;;;;;;;18.31;50.36;102607.72;5090935;28;20078;-63
2022/07/10 05:32:07;;;;;;;6.07;1.80;;;;;;;18.30;50.47;102606.91;5099815;28;20048;-63
2022/07/10 05:34:34;;;;;;;6.50;2.00;;;;;;;18.29;50.49;102605.25;5104546;28;20335;-63
2022/07/10 05:37:02;;;;;;;5.00;1.80;;;;;;;18.29;50.50;102607.97;5091387;28;20064;-63
2022/07/10 05:39:30;;;;;;;6.38;2.83;;;;;;;18.28;50.53;102611.75;5095276;28;20051;-63
2022/07/10 05:41:59;;;;;;;3.20;1.63;;;;;;;18.25;50.45;102609.50;5095136;28;20044;-63
2022/07/10 05:44:27;;;;;;;7.30;1.80;;;;;;;18.26;50.56;102615.75;5090457;28;20076;-63
2022/07/10 05:46:55;;;;;;;5.47;1.88;;;;;;;18.25;50.45;102601.31;5098996;28;20081;-64
2022/07/10 05:49:23;;;;;;;4.57;1.67;;;;;;;18.28;50.52;102605.47;5093271;28;20044;-63
2022/07/10 05:51:50;;;;;;;6.15;2.30;;;;;;;18.28;50.43;102605.47;5097404;28;20147;-64
2022/07/10 05:54:18;;;;;;;3.05;1.50;;;;;;;18.29;50.40;102599.81;5100300;28;20044;-63
2022/07/10 05:56:46;;;;;;;7.03;1.52;;;;;;;18.35;50.43;102603.50;5098840;28;20075;-64
2022/07/10 05:59:15;;;;;;;6.68;1.98;;;;;;;18.38;50.59;102601.13;5097603;28;20052;-63
2022/07/10 06:01:43;;;;;;;4.75;1.70;;;;;;;18.41;50.39;102603.41;5095220;28;20076;-64
2022/07/10 06:04:11;;;;;;;4.20;1.80;;;;;;;18.43;50.61;102604.00;5093244;28;20044;-63
2022/07/10 06:06:39;;;;;;;3.03;1.45;;;;;;;18.46;50.91;102608.97;5091438;28;20084;-63
2022/07/10 06:09:06;;;;;;;3.92;1.75;;;;;;;18.49;50.82;102611.25;4747996;28;9999671;-64
2022/07/10 06:11:34;;;;;;;6.00;2.65;;;;;;;18.51;50.87;102608.28;5099210;28;20054;-65
2022/07/10 06:14:03;;;;;;;4.40;1.88;;;;;;;18.54;51.08;102613.28;5093058;28;20079;-65
2022/07/10 06:16:32;;;;;;;7.32;2.15;;;;;;;18.51;51.11;102606.38;5104130;28;20101;-64
2022/07/10 06:19:00;;;;;;;7.25;1.80;;;;;;;18.59;51.26;102609.84;5102110;28;20051;-64
2022/07/10 06:21:27;;;;;;;5.40;1.40;;;;;;;18.59;51.29;102607.13;5104992;28;20107;-64
2022/07/10 06:23:55;;;;;;;5.15;1.70;;;;;;;18.60;51.27;102604.16;5097107;28;20128;-64
2022/07/10 06:26:23;;;;;;;6.55;1.80;;;;;;;18.63;51.31;102603.75;5094286;28;20079;-66
2022/07/10 06:28:51;;;;;;;5.35;1.58;;;;;;;18.67;51.25;102617.72;5110212;28;20051;-65
2022/07/10 06:31:19;;;;;;;7.97;1.90;;;;;;;18.69;51.22;102610.97;5103379;28;20044;-65
2022/07/10 06:33:48;;;;;;;5.72;1.73;;;;;;;18.73;51.29;102608.63;5093492;28;20147;-64
2022/07/10 06:36:16;;;;;;;4.20;1.67;;;;;;;18.75;51.28;102618.22;5100662;28;20076;-64
2022/07/10 06:38:51;;;;;;;4.88;1.52;;;;;;;18.73;51.18;102612.16;5089806;28;20044;-64
2022/07/10 06:41:18;;;;;;;8.60;2.78;;;;;;;18.75;51.14;102609.22;5091802;28;20044;-64
2022/07/10 06:43:46;;;;;;;5.75;1.30;;;;;;;18.74;51.29;102602.09;5087027;28;20522;-65
2022/07/10 06:46:14;;;;;;;5.18;1.40;;;;;;;18.75;51.25;102601.88;5088349;28;20048;-64
2022/07/10 06:48:41;;;;;;;8.23;1.60;;;;;;;18.76;51.29;102599.97;5093264;28;20079;-65
2022/07/10 06:51:10;;;;;;;3.60;1.40;;;;;;;18.77;51.23;102593.47;5100621;28;20223;-65
2022/07/10 06:53:45;;;;;;;5.22;1.58;;;;;;;18.76;51.21;102592.63;5101966;28;20053;-66
2022/07/10 06:56:15;;;;;;;4.78;1.48;;;;;;;18.78;51.38;102601.41;5107783;28;20036;-70
2022/07/10 06:58:43;;;;;;;6.65;1.38;;;;;;;18.79;51.30;102596.78;5095507;28;20051;-66
2022/07/10 07:01:11;;;;;;;5.85;1.52;;;;;;;18.80;51.52;102591.09;5092322;28;20530;-66
2022/07/10 07:03:39;;;;;;;7.50;1.80;;;;;;;18.62;51.13;102554.94;5097232;28;20346;-66
2022/07/10 07:06:07;;;;;;;5.25;1.95;;;;;;;18.85;51.36;102590.41;5098754;28;20075;-67
2022/07/10 07:08:36;;;;;;;5.45;1.98;;;;;;;18.87;51.37;102598.34;5088187;28;20139;-66
2022/07/10 07:11:04;;;;;;;5.13;1.40;;;;;;;18.84;51.37;102597.75;5105231;28;20137;-66
2022/07/10 07:13:32;;;;;;;8.75;1.90;;;;;;;18.84;51.41;102600.47;5097783;28;20059;-66
2022/07/10 07:16:00;;;;;;;3.70;1.20;;;;;;;18.82;51.38;102602.59;5101411;28;20606;-65
2022/07/10 07:18:32;;;;;;;6.65;1.70;;;;;;;18.81;51.37;102611.00;5083682;28;20062;-65
2022/07/10 07:23:47;;;;;;;5.60;1.20;;;;;;;18.77;51.60;102607.09;5098655;28;20062;-66
2022/07/10 07:26:15;;;;;;;3.90;1.33;;;;;;;18.74;51.56;102608.38;5094575;28;20044;-64
2022/07/10 07:28:42;;;;;;;7.38;2.40;;;;;;;18.73;51.78;102609.44;5098973;28;20040;-65
2022/07/10 07:31:10;;;;;;;4.82;1.92;;;;;;;18.72;51.81;102606.97;5098743;28;20052;-66
2022/07/10 07:33:42;;;;;;;7.93;1.75;;;;;;;18.71;51.82;102600.69;5087517;28;20058;-65
2022/07/10 07:36:10;;;;;;;8.85;2.00;;;;;;;18.72;51.81;102610.50;5110298;28;20384;-65
2022/07/10 07:38:37;;;;;;;4.53;1.58;;;;;;;18.72;51.61;102606.97;5096299;28;20048;-65
2022/07/10 07:41:08;;;;;;;6.22;1.77;;;;;;;18.73;51.79;102614.91;5110040;28;20530;-66
2022/07/10 07:43:36;;;;;;;4.50;1.63;;;;;;;18.74;51.69;102604.84;5089208;28;20052;-65
2022/07/10 07:46:04;;;;;;;3.47;1.25;;;;;;;18.74;52.07;102607.56;5097411;28;20051;-66
2022/07/10 07:48:32;;;;;;;7.30;2.35;;;;;;;18.74;52.33;102611.09;5091691;28;20081;-64
2022/07/10 07:51:00;;;;;;;4.63;2.28;;;;;;;18.73;52.36;102623.06;5106607;28;20044;-63
2022/07/10 07:53:27;;;;;;;6.50;1.67;;;;;;;18.73;52.65;102603.16;5096239;28;20469;-66
2022/07/10 07:55:56;;;;;;;7.35;1.67;;;;;;;18.74;52.51;102611.09;5108033;28;20044;-64
2022/07/10 07:58:25;;;;;;;4.13;1.55;;;;;;;18.61;52.37;102588.69;5108337;28;20135;-64
2022/07/10 08:00:53;;;;;;;4.90;1.90;;;;;;;18.61;52.53;102586.81;5101905;28;20040;-64
2022/07/10 08:03:21;;;;;;;5.00;2.05;;;;;;;18.73;52.36;102608.63;5102283;28;20180;-64
2022/07/10 08:06:09;;;;;;;6.22;1.83;;;;;;;18.74;52.20;102610.28;5103793;28;20066;-64
2022/07/10 08:08:36;;;;;;;8.30;1.65;;;;;;;18.73;52.27;102609.44;5094578;28;20048;-62
2022/07/10 08:11:05;;;;;;;5.57;1.40;;;;;;;18.73;52.45;102616.78;5099445;28;20128;-62
2022/07/10 08:13:34;;;;;;;12.40;2.45;;;;;;;18.71;52.71;102600.69;5091347;28;20056;-62
2022/07/10 08:16:02;;;;;;;8.27;1.92;;;;;;;18.71;52.45;102610.75;5094731;28;20044;-63
2022/07/10 08:18:35;;;;;;;12.75;2.00;;;;;;;18.62;52.87;102593.06;4744755;28;10000655;-62
2022/07/10 08:21:05;;;;;;;6.53;2.22;;;;;;;18.70;52.77;102595.47;5107409;28;20534;-63
2022/07/10 08:23:33;;;;;;;6.57;2.10;;;;;;;18.69;52.75;102593.81;5102283;28;20115;-63
2022/07/10 08:26:01;;;;;;;6.60;2.00;;;;;;;18.69;52.81;102591.09;5093144;28;20083;-63
2022/07/10 08:28:28;;;;;;;4.45;1.75;;;;;;;18.68;52.96;102590.25;5100300;28;20047;-59
2022/07/10 08:30:57;;;;;;;7.80;2.25;;;;;;;18.67;52.79;102596.75;5101403;28;20044;-65
2022/07/10 08:33:25;;;;;;;8.75;2.25;;;;;;;18.68;52.72;102597.59;5090386;28;20139;-65
2022/07/10 08:35:58;;;;;;;8.80;2.33;;;;;;;18.69;52.97;102600.09;5108882;28;20086;-66
2022/07/10 08:38:46;;;;;;;7.57;1.85;;;;;;;18.69;52.95;102597.34;5107338;28;20141;-65
2022/07/10 08:41:15;;;;;;;4.95;2.00;;;;;;;18.67;52.87;102588.59;4756510;28;10000192;-66
2022/07/10 08:43:43;;;;;;;4.95;2.50;;;;;;;18.70;52.98;102598.19;5107949;28;20470;-66
2022/07/10 08:46:13;;;;;;;7.43;2.08;;;;;;;18.71;53.08;102600.69;5101647;28;20114;-66
2022/07/10 08:48:43;;;;;;;5.70;2.92;;;;;;;18.73;53.23;102608.63;5110097;28;20110;-67
2022/07/10 08:51:16;;;;;;;9.60;3.05;;;;;;;18.73;53.01;102604.00;5104338;28;20114;-67
2022/07/10 08:53:44;;;;;;;9.73;3.22;;;;;;;18.73;53.21;102609.44;5095928;28;20068;-66
2022/07/10 08:56:12;;;;;;;10.75;2.83;;;;;;;18.75;53.28;102607.31;5109294;28;20044;-66
2022/07/10 08:58:40;;;;;;;9.15;2.30;;;;;;;18.77;53.11;102607.09;5104716;28;20477;-67
2022/07/10 09:01:08;;;;;;;6.75;2.40;;;;;;;18.77;53.06;102605.19;5101588;28;20058;-67
2022/07/10 09:03:38;;;;;;;6.30;2.15;;;;;;;18.83;53.10;102612.44;5093543;28;20135;-67
2022/07/10 09:06:07;;;;;;;5.50;2.40;;;;;;;18.80;53.02;102610.16;5100506;28;20060;-67
2022/07/10 09:08:36;;;;;;;9.88;2.85;;;;;;;18.82;53.19;102612.66;5089492;28;20098;-66
2022/07/10 09:11:17;;;;;;;5.68;2.72;;;;;;;18.79;53.16;102605.78;5095086;28;20106;-66
2022/07/10 09:13:51;;;;;;;11.07;3.00;;;;;;;18.79;53.34;102605.78;5104204;28;20066;-67
2022/07/10 09:16:24;;;;;;;9.73;2.30;;;;;;;18.78;53.40;102606.84;5105191;28;20071;-66
2022/07/10 09:18:54;;;;;;;5.63;1.92;;;;;;;18.78;53.47;102598.69;5097441;28;20045;-67
2022/07/10 09:21:23;;;;;;;6.38;2.05;;;;;;;18.77;53.62;102599.75;5103150;28;20047;-69
2022/07/10 09:24:05;;;;;;;6.30;2.42;;;;;;;18.78;53.27;102604.13;5104308;28;20171;-66
2022/07/10 09:26:33;;;;;;;6.28;2.17;;;;;;;18.77;53.48;102597.03;5087729;28;20074;-67
2022/07/10 09:29:08;;;;;;;8.35;2.67;;;;;;;18.78;53.60;102589.69;5095279;28;20070;-68
2022/07/10 09:31:53;;;;;;;4.68;2.65;;;;;;;18.80;53.58;102590.28;5100708;28;20555;-67
2022/07/10 09:37:24;;;;;;;6.53;2.47;;;;;;;18.82;53.57;102590.88;5090863;28;20389;-67
2022/07/10 09:39:53;;;;;;;6.25;2.25;;;;;;;18.81;53.33;102590.03;5090928;28;20457;-68
2022/07/10 09:42:32;;;;;;;9.10;2.25;;;;;;;18.80;53.53;102580.22;5080150;28;20056;-70
2022/07/10 09:45:18;;;;;;;7.07;2.40;;;;;;;18.82;53.62;102580.81;5076322;28;20037;-70
2022/07/10 09:47:54;;;;;;;9.45;2.53;;;;;;;18.82;53.39;102574.53;5073788;28;20048;-70
2022/07/10 09:50:24;;;;;;;6.15;2.08;;;;;;;18.83;53.91;102573.47;5082307;28;20054;-70
2022/07/10 09:52:55;;;;;;;5.85;2.13;;;;;;;18.78;53.76;102566.00;5088385;28;20044;-70
2022/07/10 09:55:24;;;;;;;7.88;3.25;;;;;;;18.76;53.71;102557.22;5080412;28;20083;-68
2022/07/10 09:57:56;;;;;;;8.95;2.08;;;;;;;18.85;53.77;102565.88;5089544;28;20045;-69
2022/07/10 10:00:28;;;;;;;7.72;2.40;;;;;;;18.87;53.94;102571.94;5092406;28;20094;-69
2022/07/10 10:02:57;;;;;;;7.20;2.28;;;;;;;18.87;53.80;102574.66;5074511;28;20238;-69
2022/07/10 10:05:34;;;;;;;6.28;2.22;;;;;;;18.89;53.75;102574.41;5093936;28;20048;-70
2022/07/10 10:08:10;;;;;;;5.85;2.17;;;;;;;18.90;53.77;102576.06;5096544;28;20114;-69
2022/07/10 10:10:44;;;;;;;6.57;2.15;;;;;;;18.90;54.02;102570.63;5090559;28;20049;-70
2022/07/10 10:13:14;;;;;;;5.15;1.90;;;;;;;18.90;54.06;102571.47;5078084;28;20078;-70
2022/07/10 10:15:44;;;;;;;3.88;1.85;;;;;;;18.91;54.13;102572.28;5095423;28;20079;-69
2022/07/10 10:18:13;;;;;;;3.75;2.08;;;;;;;18.92;54.07;102571.22;5090140;28;20053;-69
2022/07/10 10:20:41;;;;;;;4.97;2.33;;;;;;;18.91;54.00;102572.28;5085079;28;20049;-69
2022/07/10 10:23:14;;;;;;;5.90;2.13;;;;;;;18.87;53.85;102566.47;5077004;28;20506;-69
2022/07/10 10:25:41;;;;;;;9.38;2.67;;;;;;;18.93;53.81;102575.59;5089858;28;20591;-70
2022/07/10 10:28:11;;;;;;;7.07;2.10;;;;;;;18.94;53.96;102578.09;5079229;28;20102;-70
2022/07/10 10:30:44;;;;;;;4.65;1.75;;;;;;;18.94;54.00;102569.09;5075226;28;20498;-69
2022/07/10 10:33:45;;;;;;;4.80;1.90;;;;;;;18.95;53.96;102560.69;5085757;28;20394;-69
2022/07/10 10:36:14;;;;;;;6.55;2.00;;;;;;;18.93;53.70;102571.00;5095669;28;20060;-69
2022/07/10 10:39:04;;;;;;;6.82;2.13;;;;;;;18.95;54.04;102557.97;5083218;28;20044;-69
2022/07/10 10:41:39;;;;;;;5.80;2.20;;;;;;;18.97;53.84;102564.00;5082976;28;20052;-70
2022/07/10 10:44:31;;;;;;;6.07;2.50;;;;;;;18.99;54.06;102564.59;5083127;28;20133;-70
2022/07/10 10:47:06;;;;;;;4.53;1.70;;;;;;;18.97;54.12;102560.44;5090168;28;20045;-69
2022/07/10 10:49:54;;;;;;;7.05;1.80;;;;;;;19.00;54.25;102549.91;5074817;28;20040;-69
2022/07/10 10:52:22;;;;;;;5.10;1.90;;;;;;;19.01;54.27;102550.72;5060070;28;20049;-69
2022/07/10 10:55:08;;;;;;;3.88;1.70;;;;;;;19.04;54.14;102551.09;5070030;28;20056;-69
2022/07/10 10:57:44;;;;;;;3.83;1.70;;;;;;;19.07;54.01;102555.19;5064052;28;20118;-70
2022/07/10 11:00:15;;;;;;;3.13;2.10;;;;;;;19.09;54.26;102559.34;5070155;28;20151;-70
2022/07/10 11:02:43;;;;;;;5.90;2.00;;;;;;;19.11;54.07;102559.13;5073917;28;20044;-70
2022/07/10 11:05:43;;;;;;;5.65;2.00;;;;;;;19.12;54.04;102549.88;5059068;28;20053;-69
2022/07/10 11:08:12;;;;;;;4.07;1.75;;;;;;;19.13;53.95;102548.81;5067572;28;20055;-69
2022/07/10 11:10:42;;;;;;;7.20;2.67;;;;;;;19.11;53.88;102543.59;5075266;28;20072;-69
2022/07/10 11:13:17;;;;;;;3.30;1.60;;;;;;;19.16;53.97;102542.88;5056302;28;20053;-70
2022/07/10 11:15:47;;;;;;;6.32;1.95;;;;;;;19.18;54.08;102535.28;5070957;28;20048;-68
2022/07/10 11:18:18;;;;;;;6.93;2.03;;;;;;;19.20;53.85;102535.88;5055250;28;20119;-69
2022/07/10 11:20:49;;;;;;;4.13;1.73;;;;;;;19.22;53.96;102539.19;5084091;28;20106;-69
2022/07/10 11:23:44;;;;;;;4.00;1.77;;;;;;;19.23;53.86;102535.41;5074322;28;20048;-70
2022/07/10 11:26:21;;;;;;;4.55;1.70;;;;;;;19.24;53.92;102534.34;5068931;28;20163;-68
2022/07/10 11:28:52;;;;;;;3.95;1.80;;;;;;;19.26;54.08;102531.38;5059573;28;20099;-69
2022/07/10 11:31:21;;;;;;;3.53;1.90;;;;;;;19.24;53.71;102522.59;5068567;28;20052;-69
2022/07/10 11:33:51;;;;;;;4.05;1.80;;;;;;;19.29;53.88;102518.09;5082345;28;20055;-68
2022/07/10 11:36:21;;;;;;;3.38;1.50;;;;;;;19.30;53.86;102530.66;5049199;28;20049;-69
2022/07/10 11:38:57;;;;;;;4.40;1.67;;;;;;;19.31;53.88;102515.97;5067101;28;20095;-66
2022/07/10 11:41:27;;;;;;;4.45;1.60;;;;;;;19.27;53.78;102509.31;5061549;28;20049;-65